createdAt,value
2018-09-05T00:00:31.155Z,97452.09
2018-09-05T00:03:00.128Z,97458.80
2018-09-05T00:05:29.072Z,97458.92
2018-09-05T00:07:58.369Z,97460.20
2018-09-05T00:10:27.681Z,97458.64
2018-09-05T00:12:56.867Z,97457.68
2018-09-05T00:15:25.939Z,97456.13
2018-09-05T00:17:55.201Z,97469.13
2018-09-05T00:20:24.223Z,97455.58
2018-09-05T00:22:53.593Z,97467.33
2018-09-05T00:25:22.591Z,97471.07
2018-09-05T00:27:51.974Z,97471.75
2018-09-05T00:30:21.187Z,97469.37
2018-09-05T00:32:50.173Z,97470.99
2018-09-05T00:35:19.476Z,97466.28
2018-09-05T00:37:48.664Z,97467.48
2018-09-05T00:40:17.961Z,97467.88
2018-09-05T00:42:47.472Z,97472.95
2018-09-05T00:45:16.697Z,97474.54
2018-09-05T00:47:45.888Z,97472.73
2018-09-05T00:50:15.092Z,97462.80
2018-09-05T00:52:44.364Z,97460.98
2018-09-05T00:55:13.431Z,97453.12
2018-09-05T00:57:42.817Z,97449.95
2018-09-05T01:00:12.064Z,97460.52
2018-09-05T01:02:41.503Z,97468.38
2018-09-05T01:05:10.752Z,97468.95
2018-09-05T01:07:39.990Z,97473.08
2018-09-05T01:10:09.430Z,97481.90
2018-09-05T01:12:38.338Z,97482.50
2018-09-05T01:15:07.551Z,97479.95
2018-09-05T01:17:36.936Z,97482.62
2018-09-05T01:20:06.260Z,97493.80
2018-09-05T01:22:35.627Z,97483.59
2018-09-05T01:25:04.858Z,97482.11
2018-09-05T01:27:33.994Z,97481.52
2018-09-05T01:30:03.099Z,97478.70
2018-09-05T01:32:32.344Z,97472.30
2018-09-05T01:35:01.580Z,97472.52
2018-09-05T01:37:30.776Z,97471.33
2018-09-05T01:39:59.725Z,97464.55
2018-09-05T01:42:29.059Z,97466.14
2018-09-05T01:44:58.060Z,97461.89
2018-09-05T01:47:27.357Z,97467.83
2018-09-05T01:49:56.557Z,97472.69
2018-09-05T01:52:25.703Z,97467.61
2018-09-05T01:54:55.015Z,97472.69
2018-09-05T01:57:24.221Z,97471.36
2018-09-05T01:59:53.250Z,97468.94
2018-09-05T02:02:22.456Z,97468.94
2018-09-05T02:04:51.776Z,97468.68
2018-09-05T02:07:20.671Z,97462.36
2018-09-05T02:09:50.131Z,97468.30
2018-09-05T02:12:19.308Z,97472.56
2018-09-05T02:14:48.527Z,97474.02
2018-09-05T02:17:17.710Z,97472.44
2018-09-05T02:19:46.924Z,97472.52
2018-09-05T02:22:16.452Z,97477.44
2018-09-05T02:24:45.959Z,97476.06
2018-09-05T02:27:15.420Z,97473.38
2018-09-05T02:29:44.570Z,97466.45
2018-09-05T02:32:13.801Z,97473.86
2018-09-05T02:34:42.864Z,97462.73
2018-09-05T02:37:12.218Z,97468.92
2018-09-05T02:39:41.528Z,97462.84
2018-09-05T02:42:10.813Z,97463.12
2018-09-05T02:44:40.108Z,97458.62
2018-09-05T02:47:09.507Z,97452.95
2018-09-05T02:49:38.749Z,97452.73
2018-09-05T02:52:07.708Z,97454.06
2018-09-05T02:54:37.095Z,97451.05
2018-09-05T02:57:06.435Z,97454.06
2018-09-05T02:59:35.738Z,97455.41
2018-09-05T03:02:04.707Z,97456.26
2018-09-05T03:04:34.131Z,97467.43
2018-09-05T03:07:03.273Z,97466.80
2018-09-05T03:09:32.385Z,97467.05
2018-09-05T03:12:01.736Z,97463.66
2018-09-05T03:14:30.719Z,97465.11
2018-09-05T03:17:00.151Z,97468.65
2018-09-05T03:19:29.620Z,97464.16
2018-09-05T03:21:58.672Z,97462.17
2018-09-05T03:24:27.808Z,97467.86
2018-09-05T03:26:57.203Z,97469.05
2018-09-05T03:29:26.547Z,97472.09
2018-09-05T03:31:55.889Z,97478.24
2018-09-05T03:34:25.264Z,97479.33
2018-09-05T03:36:54.612Z,97477.25
2018-09-05T03:39:23.568Z,97484.01
2018-09-05T03:41:52.694Z,97492.94
2018-09-05T03:44:22.003Z,97488.00
2018-09-05T03:46:51.317Z,97492.59
2018-09-05T03:49:20.517Z,97487.70
2018-09-05T03:51:49.803Z,97491.20
2018-09-05T03:54:19.087Z,97493.16
2018-09-05T03:56:48.116Z,97492.33
2018-09-05T03:59:17.628Z,97495.94
2018-09-05T04:01:46.897Z,97505.77
2018-09-05T04:04:16.187Z,97506.37
2018-09-05T04:06:45.482Z,97511.48
2018-09-05T04:09:14.876Z,97516.40
2018-09-05T04:11:43.770Z,97521.16
2018-09-05T04:14:12.951Z,97523.34
2018-09-05T04:16:42.280Z,97526.28
2018-09-05T04:19:11.628Z,97519.74
2018-09-05T04:21:40.779Z,97518.92
2018-09-05T04:24:10.164Z,97520.98
2018-09-05T04:26:39.361Z,97521.94
2018-09-05T04:29:08.837Z,97520.86
2018-09-05T04:31:37.707Z,97522.81
2018-09-05T04:34:06.999Z,97520.00
2018-09-05T04:36:36.432Z,97525.46
2018-09-05T04:39:07.768Z,97514.81
2018-09-05T04:41:37.003Z,97519.80
2018-09-05T04:44:06.477Z,97517.02
2018-09-05T04:46:35.879Z,97516.03
2018-09-05T04:49:04.963Z,97530.45
2018-09-05T04:51:35.661Z,97528.88
2018-09-05T04:54:05.695Z,97537.61
2018-09-05T04:56:35.096Z,97534.33
2018-09-05T04:59:04.241Z,97531.89
2018-09-05T05:01:33.528Z,97527.55
2018-09-05T05:04:02.522Z,97536.28
2018-09-05T05:06:31.717Z,97528.53
2018-09-05T05:09:01.084Z,97533.35
2018-09-05T05:11:30.175Z,97535.15
2018-09-05T05:13:59.174Z,97535.48
2018-09-05T05:16:28.201Z,97536.67
2018-09-05T05:18:57.712Z,97532.44
2018-09-05T05:21:27.066Z,97533.89
2018-09-05T05:23:56.289Z,97539.36
2018-09-05T05:26:25.253Z,97536.12
2018-09-05T05:28:54.372Z,97536.12
2018-09-05T05:31:23.388Z,97528.98
2018-09-05T05:33:52.793Z,97535.42
2018-09-05T05:36:22.032Z,97533.02
2018-09-05T05:38:51.237Z,97532.41
2018-09-05T05:41:20.660Z,97531.38
2018-09-05T05:43:50.017Z,97531.36
2018-09-05T05:46:19.303Z,97526.55
2018-09-05T05:48:48.419Z,97523.74
2018-09-05T05:51:17.272Z,97530.07
2018-09-05T05:53:46.348Z,97529.58
2018-09-05T05:56:15.661Z,97527.02
2018-09-05T05:58:44.791Z,97533.55
2018-09-05T06:01:14.035Z,97528.61
2018-09-05T06:03:43.185Z,97524.70
2018-09-05T06:06:12.721Z,97532.36
2018-09-05T06:08:41.951Z,97529.17
2018-09-05T06:11:11.397Z,97537.42
2018-09-05T06:13:40.336Z,97534.61
2018-09-05T06:16:09.641Z,97541.36
2018-09-05T06:18:38.960Z,97536.86
2018-09-05T06:21:08.360Z,97536.19
2018-09-05T06:23:37.455Z,97539.05
2018-09-05T06:26:07.110Z,97532.01
2018-09-05T06:28:36.496Z,97537.17
2018-09-05T06:31:06.042Z,97536.19
2018-09-05T06:33:34.865Z,97534.62
2018-09-05T06:36:04.244Z,97542.78
2018-09-05T06:38:33.648Z,97540.79
2018-09-05T06:41:02.952Z,97535.47
2018-09-05T06:43:32.198Z,97532.95
2018-09-05T06:46:01.093Z,97540.28
2018-09-05T06:48:30.360Z,97537.18
2018-09-05T06:51:03.280Z,97540.44
2018-09-05T06:53:32.519Z,97546.75
2018-09-05T06:56:01.791Z,97544.12
2018-09-05T06:58:30.921Z,97546.20
2018-09-05T07:01:00.388Z,97542.00
2018-09-05T07:03:29.835Z,97546.44
2018-09-05T07:05:59.025Z,97545.36
2018-09-05T07:08:28.351Z,97547.84
2018-09-05T07:10:57.611Z,97549.66
2018-09-05T07:13:26.736Z,97554.63
2018-09-05T07:15:55.852Z,97558.02
2018-09-05T07:18:25.071Z,97556.27
2018-09-05T07:21:05.682Z,97564.00
2018-09-05T07:23:23.268Z,97559.61
2018-09-05T07:25:52.272Z,97553.35
2018-09-05T07:28:21.462Z,97556.88
2018-09-05T07:30:50.687Z,97550.08
2018-09-05T07:33:20.064Z,97553.62
2018-09-05T07:35:49.339Z,97557.86
2018-09-05T07:38:18.557Z,97562.52
2018-09-05T07:40:47.875Z,97557.36
2018-09-05T07:43:16.851Z,97554.09
2018-09-05T07:45:46.248Z,97550.15
2018-09-05T07:48:15.356Z,97545.06
2018-09-05T07:50:44.599Z,97544.14
2018-09-05T07:53:13.686Z,97544.73
2018-09-05T07:55:42.698Z,97543.06
2018-09-05T07:58:11.591Z,97540.48
2018-09-05T08:00:40.635Z,97543.88
2018-09-05T08:03:10.116Z,97544.33
2018-09-05T08:05:39.240Z,97545.45
2018-09-05T08:08:08.197Z,97531.93
2018-09-05T08:10:37.640Z,97539.03
2018-09-05T08:13:06.919Z,97532.30
2018-09-05T08:15:36.312Z,97542.19
2018-09-05T08:18:05.786Z,97537.87
2018-09-05T08:20:35.113Z,97528.16
2018-09-05T08:23:04.140Z,97526.50
2018-09-05T08:25:33.392Z,97515.74
2018-09-05T08:28:02.623Z,97513.22
2018-09-05T08:30:31.867Z,97513.82
2018-09-05T08:33:00.984Z,97513.52
2018-09-05T08:35:30.665Z,97516.14
2018-09-05T08:37:59.706Z,97513.52
2018-09-05T08:40:29.037Z,97505.91
2018-09-05T08:42:58.449Z,97502.99
2018-09-05T08:45:28.095Z,97504.69
2018-09-05T08:47:56.846Z,97507.69
2018-09-05T08:50:26.138Z,97497.64
2018-09-05T08:52:55.436Z,97491.11
2018-09-05T08:55:24.437Z,97494.92
2018-09-05T08:57:53.567Z,97485.02
2018-09-05T09:00:22.771Z,97478.03
2018-09-05T09:02:51.747Z,97478.97
2018-09-05T09:05:20.815Z,97482.37
2018-09-05T09:07:49.863Z,97484.38
2018-09-05T09:10:19.431Z,97481.29
2018-09-05T09:12:48.632Z,97482.38
2018-09-05T09:15:17.902Z,97481.05
2018-09-05T09:17:46.995Z,97477.41
2018-09-05T09:20:16.044Z,97471.08
2018-09-05T09:22:45.049Z,97470.88
2018-09-05T09:25:14.517Z,97472.08
2018-09-05T09:27:43.919Z,97463.64
2018-09-05T09:30:13.300Z,97467.20
2018-09-05T09:32:42.567Z,97463.35
2018-09-05T09:35:11.888Z,97460.35
2018-09-05T09:37:41.325Z,97451.66
2018-09-05T09:40:10.636Z,97447.12
2018-09-05T09:42:39.877Z,97445.59
2018-09-05T09:45:09.273Z,97447.95
2018-09-05T09:47:38.387Z,97436.12
2018-09-05T09:50:07.640Z,97445.83
2018-09-05T09:52:39.237Z,97445.28
2018-09-05T09:55:09.388Z,97448.34
2018-09-05T09:57:39.007Z,97445.12
2018-09-05T10:00:08.620Z,97447.81
2018-09-05T10:02:42.927Z,97448.58
2018-09-05T10:05:17.221Z,97443.81
2018-09-05T10:08:51.149Z,97435.34
2018-09-05T10:11:24.542Z,97434.34
2018-09-05T10:13:58.946Z,97428.31
2018-09-05T10:16:33.391Z,97428.09
2018-09-05T10:19:06.715Z,97420.05
2018-09-05T10:21:35.744Z,97424.61
2018-09-05T10:24:36.920Z,97431.89
2018-09-05T10:27:06.228Z,97419.38
2018-09-05T10:29:35.712Z,97413.23
2018-09-05T10:32:04.944Z,97419.03
2018-09-05T10:34:34.151Z,97423.63
2018-09-05T10:37:03.555Z,97418.92
2018-09-05T10:39:32.832Z,97423.73
2018-09-05T10:42:02.055Z,97418.66
2018-09-05T10:44:31.473Z,97416.38
2018-09-05T10:47:00.906Z,97415.12
2018-09-05T10:49:30.301Z,97413.71
2018-09-05T10:52:07.072Z,97405.31
2018-09-05T10:54:36.239Z,97408.66
2018-09-05T10:57:05.749Z,97411.61
2018-09-05T10:59:34.934Z,97407.53
2018-09-05T11:02:04.097Z,97401.58
2018-09-05T11:04:33.294Z,97412.95
2018-09-05T11:07:02.233Z,97405.91
2018-09-05T11:09:31.504Z,97405.95
2018-09-05T11:12:00.758Z,97411.92
2018-09-05T11:14:30.160Z,97404.80
2018-09-05T11:16:59.507Z,97406.81
2018-09-05T11:19:28.451Z,97398.36
2018-09-05T11:21:57.711Z,97397.89
2018-09-05T11:24:26.936Z,97407.73
2018-09-05T11:26:56.204Z,97399.97
2018-09-05T11:29:25.496Z,97401.56
2018-09-05T11:31:54.851Z,97397.26
2018-09-05T11:34:23.737Z,97400.27
2018-09-05T11:36:52.998Z,97398.70
2018-09-05T11:39:22.423Z,97396.28
2018-09-05T11:41:51.680Z,97402.48
2018-09-05T11:44:21.024Z,97402.79
2018-09-05T11:46:49.915Z,97405.95
2018-09-05T11:49:19.429Z,97410.47
2018-09-05T11:51:48.639Z,97416.41
2018-09-05T11:54:17.883Z,97419.66
2018-09-05T11:56:47.243Z,97419.84
2018-09-05T11:59:16.621Z,97430.23
2018-09-05T12:01:45.731Z,97419.21
2018-09-05T12:04:14.995Z,97418.50
2018-09-05T12:06:44.523Z,97429.61
2018-09-05T12:09:14.063Z,97434.98
2018-09-05T12:11:43.004Z,97442.18
2018-09-05T12:14:12.277Z,97442.59
2018-09-05T12:16:41.813Z,97445.74
2018-09-05T12:19:11.008Z,97446.85
2018-09-05T12:21:40.271Z,97448.86
2018-09-05T12:24:09.444Z,97446.73
2018-09-05T12:26:38.426Z,97447.19
2018-09-05T12:29:10.544Z,97437.34
2018-09-05T12:31:40.308Z,97438.37
2018-09-05T12:34:09.153Z,97436.78
2018-09-05T12:36:38.440Z,97434.54
2018-09-05T12:39:10.000Z,97430.51
2018-09-05T12:41:39.488Z,97424.63
2018-09-05T12:44:08.759Z,97424.30
2018-09-05T12:46:38.265Z,97420.52
2018-09-05T12:49:07.604Z,97422.88
2018-09-05T12:51:36.651Z,97419.26
2018-09-05T12:54:06.396Z,97412.05
2018-09-05T12:56:35.729Z,97412.90
2018-09-05T12:59:05.116Z,97407.97
2018-09-05T13:01:34.588Z,97401.94
2018-09-05T13:04:03.917Z,97400.72
2018-09-05T13:06:32.971Z,97396.69
2018-09-05T13:09:02.206Z,97395.87
2018-09-05T13:11:31.197Z,97406.92
2018-09-05T13:14:00.461Z,97403.82
2018-09-05T13:16:29.822Z,97412.69
2018-09-05T13:18:59.208Z,97414.35
2018-09-05T13:21:28.553Z,97404.80
2018-09-05T13:23:57.874Z,97404.52
2018-09-05T13:26:27.051Z,97401.13
2018-09-05T13:28:56.255Z,97405.58
2018-09-05T13:31:25.525Z,97397.75
2018-09-05T13:33:54.707Z,97395.52
2018-09-05T13:36:23.748Z,97390.52
2018-09-05T13:38:52.991Z,97392.69
2018-09-05T13:41:22.142Z,97383.55
2018-09-05T13:43:51.345Z,97388.00
2018-09-05T13:46:20.747Z,97390.20
2018-09-05T13:48:49.844Z,97393.38
2018-09-05T13:51:18.997Z,97395.58
2018-09-05T13:53:48.027Z,97398.30
2018-09-05T13:56:17.187Z,97399.91
2018-09-05T13:58:46.430Z,97398.16
2018-09-05T14:01:15.757Z,97392.98
2018-09-05T14:03:44.728Z,97398.40
2018-09-05T14:06:14.009Z,97398.99
2018-09-05T14:08:43.072Z,97411.69
2018-09-05T14:11:12.474Z,97408.76
2018-09-05T14:13:41.898Z,97414.83
2018-09-05T14:16:10.979Z,97415.35
2018-09-05T14:18:40.232Z,97420.28
2018-09-05T14:21:09.556Z,97421.09
2018-09-05T14:23:38.927Z,97434.20
2018-09-05T14:26:08.296Z,97437.89
2018-09-05T14:28:37.564Z,97448.31
2018-09-05T14:31:06.887Z,97455.31
2018-09-05T14:33:36.287Z,97453.34
2018-09-05T14:36:05.636Z,97455.75
2018-09-05T14:38:34.827Z,97442.66
2018-09-05T14:41:03.967Z,97434.03
2018-09-05T14:43:32.958Z,97431.51
2018-09-05T14:46:02.268Z,97432.31
2018-09-05T14:48:31.267Z,97429.52
2018-09-05T14:51:00.455Z,97437.34
2018-09-05T14:53:29.719Z,97438.45
2018-09-05T14:55:59.067Z,97447.20
2018-09-05T14:58:28.410Z,97447.63
2018-09-05T15:00:57.904Z,97453.03
2018-09-05T15:03:27.208Z,97459.85
2018-09-05T15:05:56.671Z,97458.05
2018-09-05T15:08:26.119Z,97462.95
2018-09-05T15:10:55.132Z,97464.01
2018-09-05T15:13:24.363Z,97474.75
2018-09-05T15:15:53.761Z,97471.61
2018-09-05T15:18:22.995Z,97477.49
2018-09-05T15:20:52.135Z,97475.52
2018-09-05T15:23:21.356Z,97478.95
2018-09-05T15:25:50.303Z,97485.41
2018-09-05T15:28:19.580Z,97482.88
2018-09-05T15:30:48.839Z,97484.98
2018-09-05T15:33:18.131Z,97485.64
2018-09-05T15:35:47.448Z,97477.24
2018-09-05T15:38:16.650Z,97480.53
2018-09-05T15:40:46.101Z,97473.45
2018-09-05T15:43:15.379Z,97466.17
2018-09-05T15:45:44.854Z,97466.00
2018-09-05T15:48:14.187Z,97466.89
2018-09-05T15:50:43.535Z,97471.44
2018-09-05T15:53:12.800Z,97467.64
2018-09-05T15:55:41.981Z,97468.33
2018-09-05T15:58:11.336Z,97464.63
2018-09-05T16:00:40.556Z,97457.16
2018-09-05T16:03:09.971Z,97457.27
2018-09-05T16:05:39.168Z,97460.08
2018-09-05T16:08:08.913Z,97458.42
2018-09-05T16:10:38.568Z,97464.42
2018-09-05T16:13:07.843Z,97462.85
2018-09-05T16:15:37.175Z,97464.92
2018-09-05T16:18:06.479Z,97466.50
2018-09-05T16:20:35.688Z,97460.66
2018-09-05T16:23:05.147Z,97459.80
2018-09-05T16:25:34.171Z,97463.86
2018-09-05T16:28:03.121Z,97460.47
2018-09-05T16:30:32.373Z,97463.33
2018-09-05T16:33:01.769Z,97464.34
2018-09-05T16:35:31.084Z,97462.52
2018-09-05T16:38:00.387Z,97456.13
2018-09-05T16:40:29.830Z,97468.16
2018-09-05T16:42:59.204Z,97461.89
2018-09-05T16:45:29.123Z,97473.73
2018-09-05T16:47:58.659Z,97470.44
2018-09-05T16:50:27.799Z,97483.95
2018-09-05T16:52:56.937Z,97488.05
2018-09-05T16:55:26.388Z,97490.29
2018-09-05T16:57:55.885Z,97486.53
2018-09-05T17:00:25.108Z,97497.91
2018-09-05T17:02:54.353Z,97498.19
2018-09-05T17:05:23.687Z,97499.52
2018-09-05T17:07:53.032Z,97503.08
2018-09-05T17:10:22.469Z,97505.92
2018-09-05T17:12:52.051Z,97512.84
2018-09-05T17:15:21.436Z,97518.56
2018-09-05T17:17:50.952Z,97523.59
2018-09-05T17:20:20.311Z,97523.46
2018-09-05T17:22:49.556Z,97525.84
2018-09-05T17:25:18.472Z,97539.98
2018-09-05T17:27:47.739Z,97544.13
2018-09-05T17:30:17.032Z,97545.88
2018-09-05T17:32:46.380Z,97554.16
2018-09-05T17:35:15.462Z,97550.41
2018-09-05T17:37:44.808Z,97561.56
2018-09-05T17:40:14.132Z,97563.97
2018-09-05T17:42:43.544Z,97565.63
2018-09-05T17:45:12.931Z,97569.89
2018-09-05T17:47:42.014Z,97569.79
2018-09-05T17:50:11.310Z,97573.40
2018-09-05T17:52:42.364Z,97570.63
2018-09-05T17:55:11.386Z,97576.80
2018-09-05T17:57:40.576Z,97583.48
2018-09-05T18:02:38.152Z,97593.34
2018-09-05T18:05:07.447Z,97590.77
2018-09-05T18:07:36.823Z,97592.73
2018-09-05T18:10:06.163Z,97588.73
2018-09-05T18:12:35.234Z,97583.50
2018-09-05T18:15:04.758Z,97594.53
2018-09-05T18:17:34.490Z,97591.26
2018-09-05T18:20:03.872Z,97589.69
2018-09-05T18:22:33.182Z,97584.85
2018-09-05T18:25:02.186Z,97582.59
2018-09-05T18:27:31.424Z,97583.39
2018-09-05T18:30:00.407Z,97580.02
2018-09-05T18:32:29.603Z,97583.51
2018-09-05T18:34:59.082Z,97587.41
2018-09-05T18:37:28.407Z,97586.17
2018-09-05T18:39:57.908Z,97582.52
2018-09-05T18:42:26.861Z,97583.26
2018-09-05T18:44:56.164Z,97583.99
2018-09-05T18:47:25.145Z,97571.25
2018-09-05T18:49:54.619Z,97566.78
2018-09-05T18:52:23.961Z,97580.48
2018-09-05T18:54:53.049Z,97581.08
2018-09-05T18:57:22.433Z,97579.63
2018-09-05T18:59:51.645Z,97586.07
2018-09-05T19:02:20.769Z,97580.11
2018-09-05T19:04:50.407Z,97587.16
2018-09-05T19:07:19.360Z,97579.98
2018-09-05T19:09:48.689Z,97577.31
2018-09-05T19:12:18.138Z,97572.49
2018-09-05T19:14:47.195Z,97576.97
2018-09-05T19:17:16.620Z,97567.16
2018-09-05T19:19:45.693Z,97561.79
2018-09-05T19:22:14.920Z,97553.91
2018-09-05T19:24:44.575Z,97553.91
2018-09-05T19:27:13.576Z,97549.69
2018-09-05T19:29:42.732Z,97550.55
2018-09-05T19:32:11.682Z,97550.41
2018-09-05T19:34:41.114Z,97550.28
2018-09-05T19:37:10.808Z,97545.44
2018-09-05T19:39:40.530Z,97543.15
2018-09-05T19:42:10.198Z,97539.14
2018-09-05T19:44:39.371Z,97537.82
2018-09-05T19:47:08.623Z,97538.65
2018-09-05T19:49:37.779Z,97541.20
2018-09-05T19:52:07.156Z,97540.72
2018-09-05T19:54:36.459Z,97540.47
2018-09-05T19:57:05.669Z,97533.80
2018-09-05T19:59:34.967Z,97535.02
2018-09-05T20:02:04.335Z,97526.17
2018-09-05T20:04:33.532Z,97526.06
2018-09-05T20:07:02.614Z,97524.72
2018-09-05T20:09:31.681Z,97524.59
2018-09-05T20:12:00.913Z,97521.21
2018-09-05T20:14:30.035Z,97518.29
2018-09-05T20:16:59.517Z,97521.06
2018-09-05T20:19:28.988Z,97513.16
2018-09-05T20:21:58.202Z,97514.86
2018-09-05T20:24:27.538Z,97511.94
2018-09-05T20:26:56.801Z,97510.36
2018-09-05T20:29:26.011Z,97512.20
2018-09-05T20:31:55.184Z,97513.33
2018-09-05T20:34:24.299Z,97513.33
2018-09-05T20:36:53.903Z,97512.36
2018-09-05T20:39:23.221Z,97509.57
2018-09-05T20:41:52.484Z,97511.77
2018-09-05T20:44:21.745Z,97511.89
2018-09-05T20:46:51.040Z,97518.31
2018-09-05T20:49:20.045Z,97517.33
2018-09-05T20:51:49.287Z,97515.39
2018-09-05T20:54:18.675Z,97515.27
2018-09-05T20:56:47.905Z,97515.99
2018-09-05T20:59:17.167Z,97513.33
2018-09-05T21:01:46.177Z,97515.99
2018-09-05T21:04:15.523Z,97510.41
2018-09-05T21:06:44.761Z,97513.08
2018-09-05T21:09:14.031Z,97515.27
2018-09-05T21:11:43.159Z,97517.82
2018-09-05T21:14:12.051Z,97513.45
2018-09-05T21:16:41.062Z,97513.09
2018-09-05T21:19:10.394Z,97512.02
2018-09-05T21:21:39.599Z,97517.70
2018-09-05T21:24:08.761Z,97510.08
2018-09-05T21:26:38.218Z,97503.77
2018-09-05T21:29:07.395Z,97506.91
2018-09-05T21:31:36.589Z,97504.62
2018-09-05T21:34:05.543Z,97504.14
2018-09-05T21:36:34.794Z,97500.97
2018-09-05T21:39:04.880Z,97511.77
2018-09-05T21:41:34.075Z,97505.70
2018-09-05T21:44:03.313Z,97508.75
2018-09-05T21:46:32.705Z,97510.55
2018-09-05T21:49:02.083Z,97514.30
2018-09-05T21:51:31.274Z,97506.91
2018-09-05T21:54:00.427Z,97505.58
2018-09-05T21:56:29.648Z,97508.13
2018-09-05T21:58:59.123Z,97511.39
2018-09-05T22:01:28.399Z,97513.45
2018-09-05T22:03:57.715Z,97514.41
2018-09-05T22:06:26.684Z,97516.13
2018-09-05T22:08:55.971Z,97512.60
2018-09-05T22:11:26.433Z,97511.02
2018-09-05T22:13:56.456Z,97505.08
2018-09-05T22:16:25.895Z,97500.86
2018-09-05T22:18:54.851Z,97496.86
2018-09-05T22:21:24.092Z,97491.52
2018-09-05T22:23:53.556Z,97486.79
2018-09-05T22:26:22.376Z,97483.04
2018-09-05T22:28:51.724Z,97490.30
2018-09-05T22:31:20.805Z,97491.29
2018-09-05T22:33:49.988Z,97488.88
2018-09-05T22:36:19.365Z,97491.64
2018-09-05T22:38:48.336Z,97496.84
2018-09-05T22:41:17.545Z,97498.44
2018-09-05T22:43:57.419Z,97503.39
2018-09-05T22:46:37.460Z,97499.74
2018-09-05T22:49:57.746Z,97498.66
2018-09-05T22:53:08.022Z,97483.04
2018-09-05T22:55:53.238Z,97487.89
2018-09-05T22:58:36.838Z,97479.77
2018-09-05T23:02:18.321Z,97473.61
2018-09-05T23:04:57.379Z,97470.81
2018-09-05T23:07:37.649Z,97475.07
2018-09-05T23:10:17.698Z,97473.13
2018-09-05T23:12:57.488Z,97479.28
2018-09-05T23:15:37.314Z,97468.75
2018-09-05T23:18:18.315Z,97462.57
2018-09-05T23:21:25.448Z,97466.09
2018-09-05T23:23:57.585Z,97468.73
2018-09-05T23:26:27.139Z,97468.00
2018-09-05T23:28:56.339Z,97472.86
2018-09-05T23:31:25.501Z,97467.40
2018-09-05T23:33:54.972Z,97469.11
2018-09-05T23:36:24.595Z,97466.80
2018-09-05T23:38:53.872Z,97468.98
2018-09-05T23:41:23.212Z,97473.94
2018-09-05T23:43:52.356Z,97472.00
2018-09-05T23:46:21.315Z,97472.98
2018-09-05T23:48:50.980Z,97477.97
2018-09-05T23:51:20.280Z,97475.42
2018-09-05T23:53:49.302Z,97476.51
2018-09-05T23:56:18.627Z,97479.65
2018-09-05T23:58:48.051Z,97486.19
